sensor_id;sensor_type;location;lat;lon;timestamp;pressure;altitude;pressure_sealevel;temperature;humidity
14120;BME280;7138;49.246;9.100;2022-08-01T00:00:37;98636.94;;;24.72;61.96
14120;BME280;7138;49.246;9.100;2022-08-01T00:03:04;98620.69;;;24.64;62.21
14120;BME280;7138;49.246;9.100;2022-08-01T00:05:30;98615.38;;;24.64;62.07
14120;BME280;7138;49.246;9.100;2022-08-01T00:07:57;98628.44;;;24.67;62.05
14120;BME280;7138;49.246;9.100;2022-08-01T00:10:23;98631.09;;;24.67;62.38
14120;BME280;7138;49.246;9.100;2022-08-01T00:12:50;98628.03;;;24.59;62.37
14120;BME280;7138;49.246;9.100;2022-08-01T00:15:17;98628.38;;;24.53;62.66
14120;BME280;7138;49.246;9.100;2022-08-01T00:17:43;98631.13;;;24.52;62.78
14120;BME280;7138;49.246;9.100;2022-08-01T00:20:12;98630.75;;;24.58;62.61
14120;BME280;7138;49.246;9.100;2022-08-01T00:22:39;98629.22;;;24.54;62.63
14120;BME280;7138;49.246;9.100;2022-08-01T00:25:07;98620.72;;;24.48;63.14
14120;BME280;7138;49.246;9.100;2022-08-01T00:27:33;98638.88;;;24.55;62.94
14120;BME280;7138;49.246;9.100;2022-08-01T00:29:59;98639.22;;;24.48;63.20
14120;BME280;7138;49.246;9.100;2022-08-01T00:32:25;98639.06;;;24.52;62.98
14120;BME280;7138;49.246;9.100;2022-08-01T00:34:51;98642.28;;;24.57;63.13
14120;BME280;7138;49.246;9.100;2022-08-01T00:37:17;98631.63;;;24.58;63.10
14120;BME280;7138;49.246;9.100;2022-08-01T00:39:43;98633.59;;;24.55;62.87
14120;BME280;7138;49.246;9.100;2022-08-01T00:42:12;98634.50;;;24.54;63.13
14120;BME280;7138;49.246;9.100;2022-08-01T00:44:38;98639.81;;;24.54;63.18
14120;BME280;7138;49.246;9.100;2022-08-01T00:47:06;98638.00;;;24.54;62.92
14120;BME280;7138;49.246;9.100;2022-08-01T00:49:32;98627.22;;;24.43;63.02
14120;BME280;7138;49.246;9.100;2022-08-01T00:51:59;98623.03;;;24.39;63.37
14120;BME280;7138;49.246;9.100;2022-08-01T00:54:26;98641.53;;;24.39;63.47
14120;BME280;7138;49.246;9.100;2022-08-01T00:56:54;98644.66;;;24.31;63.78
14120;BME280;7138;49.246;9.100;2022-08-01T00:59:23;98643.00;;;24.29;64.02
14120;BME280;7138;49.246;9.100;2022-08-01T01:01:49;98648.75;;;24.21;64.19
14120;BME280;7138;49.246;9.100;2022-08-01T01:04:15;98647.47;;;24.13;64.29
14120;BME280;7138;49.246;9.100;2022-08-01T01:06:51;98645.22;;;24.05;64.92
14120;BME280;7138;49.246;9.100;2022-08-01T01:09:35;98645.50;;;24.01;64.63
14120;BME280;7138;49.246;9.100;2022-08-01T01:12:16;98657.09;;;23.98;64.61
14120;BME280;7138;49.246;9.100;2022-08-01T01:14:57;98656.22;;;23.98;64.97
14120;BME280;7138;49.246;9.100;2022-08-01T01:17:36;98661.50;;;23.98;65.13
14120;BME280;7138;49.246;9.100;2022-08-01T01:20:05;98664.91;;;24.00;64.91
14120;BME280;7138;49.246;9.100;2022-08-01T01:22:57;98662.44;;;23.97;65.00
14120;BME280;7138;49.246;9.100;2022-08-01T01:25:57;98656.41;;;23.94;65.54
14120;BME280;7138;49.246;9.100;2022-08-01T01:28:34;98670.00;;;23.87;65.51
14120;BME280;7138;49.246;9.100;2022-08-01T01:31:05;98664.38;;;23.77;65.83
14120;BME280;7138;49.246;9.100;2022-08-01T01:33:36;98660.56;;;23.67;66.11
14120;BME280;7138;49.246;9.100;2022-08-01T01:36:09;98661.91;;;23.59;66.19
14120;BME280;7138;49.246;9.100;2022-08-01T01:38:40;98666.72;;;23.51;66.47
14120;BME280;7138;49.246;9.100;2022-08-01T01:41:09;98669.53;;;23.48;66.46
14120;BME280;7138;49.246;9.100;2022-08-01T01:43:38;98662.56;;;23.47;66.35
14120;BME280;7138;49.246;9.100;2022-08-01T01:46:09;98666.03;;;23.47;66.82
14120;BME280;7138;49.246;9.100;2022-08-01T01:48:36;98667.22;;;23.42;66.75
14120;BME280;7138;49.246;9.100;2022-08-01T01:51:04;98665.53;;;23.41;66.70
14120;BME280;7138;49.246;9.100;2022-08-01T01:53:34;98677.00;;;23.39;67.11
14120;BME280;7138;49.246;9.100;2022-08-01T01:56:02;98679.84;;;23.35;66.85
14120;BME280;7138;49.246;9.100;2022-08-01T01:58:31;98664.25;;;23.30;67.15
14120;BME280;7138;49.246;9.100;2022-08-01T02:00:59;98672.25;;;23.29;67.36
14120;BME280;7138;49.246;9.100;2022-08-01T02:03:29;98675.13;;;23.24;67.69
14120;BME280;7138;49.246;9.100;2022-08-01T02:05:56;98671.63;;;23.24;67.72
14120;BME280;7138;49.246;9.100;2022-08-01T02:08:24;98669.91;;;23.23;67.97
14120;BME280;7138;49.246;9.100;2022-08-01T02:10:51;98677.06;;;23.21;68.24
14120;BME280;7138;49.246;9.100;2022-08-01T02:13:39;98677.56;;;23.12;68.42
14120;BME280;7138;49.246;9.100;2022-08-01T02:16:06;98686.16;;;22.98;69.42
14120;BME280;7138;49.246;9.100;2022-08-01T02:18:35;98683.94;;;22.91;69.61
14120;BME280;7138;49.246;9.100;2022-08-01T02:21:05;98683.94;;;22.91;69.87
14120;BME280;7138;49.246;9.100;2022-08-01T02:23:36;98694.38;;;22.92;69.95
14120;BME280;7138;49.246;9.100;2022-08-01T02:26:08;98685.88;;;22.87;69.80
14120;BME280;7138;49.246;9.100;2022-08-01T02:28:41;98682.38;;;22.86;70.82
14120;BME280;7138;49.246;9.100;2022-08-01T02:31:13;98693.22;;;22.80;70.67
14120;BME280;7138;49.246;9.100;2022-08-01T02:33:50;98684.59;;;22.77;71.26
14120;BME280;7138;49.246;9.100;2022-08-01T02:36:20;98694.47;;;22.73;71.24
14120;BME280;7138;49.246;9.100;2022-08-01T02:38:49;98682.53;;;22.66;71.49
14120;BME280;7138;49.246;9.100;2022-08-01T02:41:20;98688.06;;;22.60;71.73
14120;BME280;7138;49.246;9.100;2022-08-01T02:43:51;98692.56;;;22.58;72.05
14120;BME280;7138;49.246;9.100;2022-08-01T02:46:23;98695.25;;;22.57;71.88
14120;BME280;7138;49.246;9.100;2022-08-01T02:48:55;98690.84;;;22.57;72.47
14120;BME280;7138;49.246;9.100;2022-08-01T02:51:25;98687.50;;;22.54;72.56
14120;BME280;7138;49.246;9.100;2022-08-01T02:53:54;98683.09;;;22.54;72.25
14120;BME280;7138;49.246;9.100;2022-08-01T02:56:23;98681.13;;;22.41;72.98
14120;BME280;7138;49.246;9.100;2022-08-01T02:59:02;98700.28;;;22.44;73.39
14120;BME280;7138;49.246;9.100;2022-08-01T03:01:31;98694.84;;;22.47;73.36
14120;BME280;7138;49.246;9.100;2022-08-01T03:03:59;98695.66;;;22.49;73.59
14120;BME280;7138;49.246;9.100;2022-08-01T03:06:25;98693.09;;;22.48;73.25
14120;BME280;7138;49.246;9.100;2022-08-01T03:08:53;98700.38;;;22.43;73.10
14120;BME280;7138;49.246;9.100;2022-08-01T03:11:22;98692.59;;;22.40;73.36
14120;BME280;7138;49.246;9.100;2022-08-01T03:13:52;98696.88;;;22.42;73.00
14120;BME280;7138;49.246;9.100;2022-08-01T03:16:21;98695.44;;;22.35;73.55
14120;BME280;7138;49.246;9.100;2022-08-01T03:18:48;98694.59;;;22.34;73.88
14120;BME280;7138;49.246;9.100;2022-08-01T03:21:20;98694.81;;;22.30;73.99
14120;BME280;7138;49.246;9.100;2022-08-01T03:23:50;98699.19;;;22.31;73.21
14120;BME280;7138;49.246;9.100;2022-08-01T03:26:17;98694.69;;;22.33;73.70
14120;BME280;7138;49.246;9.100;2022-08-01T03:28:46;98691.91;;;22.36;73.19
14120;BME280;7138;49.246;9.100;2022-08-01T03:31:14;98700.56;;;22.38;73.21
14120;BME280;7138;49.246;9.100;2022-08-01T03:33:40;98706.66;;;22.40;73.28
14120;BME280;7138;49.246;9.100;2022-08-01T03:36:11;98703.22;;;22.38;73.58
14120;BME280;7138;49.246;9.100;2022-08-01T03:38:43;98700.66;;;22.37;73.42
14120;BME280;7138;49.246;9.100;2022-08-01T03:41:15;98703.59;;;22.30;73.55
14120;BME280;7138;49.246;9.100;2022-08-01T03:43:50;98708.78;;;22.32;73.60
14120;BME280;7138;49.246;9.100;2022-08-01T03:46:25;98704.31;;;22.34;73.75
14120;BME280;7138;49.246;9.100;2022-08-01T03:48:58;98705.22;;;22.33;73.47
14120;BME280;7138;49.246;9.100;2022-08-01T03:51:27;98708.91;;;22.29;73.67
14120;BME280;7138;49.246;9.100;2022-08-01T03:53:59;98704.75;;;22.25;74.33
14120;BME280;7138;49.246;9.100;2022-08-01T03:56:28;98708.22;;;22.25;74.09
14120;BME280;7138;49.246;9.100;2022-08-01T03:58:58;98702.09;;;22.25;74.20
14120;BME280;7138;49.246;9.100;2022-08-01T04:01:25;98701.16;;;22.26;74.05
14120;BME280;7138;49.246;9.100;2022-08-01T04:03:52;98701.09;;;22.27;73.64
14120;BME280;7138;49.246;9.100;2022-08-01T04:06:18;98694.97;;;22.27;73.70
14120;BME280;7138;49.246;9.100;2022-08-01T04:08:44;98695.84;;;22.27;74.23
14120;BME280;7138;49.246;9.100;2022-08-01T04:11:23;98704.75;;;22.25;74.07
14120;BME280;7138;49.246;9.100;2022-08-01T04:13:50;98708.28;;;22.24;74.41
14120;BME280;7138;49.246;9.100;2022-08-01T04:16:16;98709.06;;;22.26;73.95
14120;BME280;7138;49.246;9.100;2022-08-01T04:18:42;98718.59;;;22.28;74.44
14120;BME280;7138;49.246;9.100;2022-08-01T04:21:08;98717.53;;;22.32;73.96
14120;BME280;7138;49.246;9.100;2022-08-01T04:23:35;98712.22;;;22.34;73.99
14120;BME280;7138;49.246;9.100;2022-08-01T04:26:04;98720.88;;;22.36;74.29
14120;BME280;7138;49.246;9.100;2022-08-01T04:28:34;98715.97;;;22.28;74.62
14120;BME280;7138;49.246;9.100;2022-08-01T04:31:02;98721.75;;;22.18;74.86
14120;BME280;7138;49.246;9.100;2022-08-01T04:33:33;98729.28;;;22.25;74.98
14120;BME280;7138;49.246;9.100;2022-08-01T04:36:03;98730.72;;;22.32;75.27
14120;BME280;7138;49.246;9.100;2022-08-01T04:38:32;98730.41;;;22.39;75.51
14120;BME280;7138;49.246;9.100;2022-08-01T04:40:59;98734.69;;;22.41;75.51
14120;BME280;7138;49.246;9.100;2022-08-01T04:43:27;98738.94;;;22.44;75.43
14120;BME280;7138;49.246;9.100;2022-08-01T04:45:57;98732.84;;;22.43;76.34
14120;BME280;7138;49.246;9.100;2022-08-01T04:48:24;98729.28;;;22.44;75.76
14120;BME280;7138;49.246;9.100;2022-08-01T04:50:51;98724.00;;;22.44;75.26
14120;BME280;7138;49.246;9.100;2022-08-01T04:53:19;98737.03;;;22.47;76.06
14120;BME280;7138;49.246;9.100;2022-08-01T04:55:47;98732.84;;;22.43;77.23
14120;BME280;7138;49.246;9.100;2022-08-01T04:58:15;98742.00;;;22.53;76.26
14120;BME280;7138;49.246;9.100;2022-08-01T05:00:41;98738.06;;;22.62;76.20
14120;BME280;7138;49.246;9.100;2022-08-01T05:03:08;98742.09;;;22.70;76.23
14120;BME280;7138;49.246;9.100;2022-08-01T05:05:34;98746.47;;;22.89;75.92
14120;BME280;7138;49.246;9.100;2022-08-01T05:08:01;98747.84;;;23.30;75.01
14120;BME280;7138;49.246;9.100;2022-08-01T05:10:27;98746.06;;;23.98;73.27
14120;BME280;7138;49.246;9.100;2022-08-01T05:12:53;98741.81;;;24.73;71.45
14120;BME280;7138;49.246;9.100;2022-08-01T05:15:19;98747.41;;;25.58;69.49
14120;BME280;7138;49.246;9.100;2022-08-01T05:17:45;98748.56;;;26.25;67.60
14120;BME280;7138;49.246;9.100;2022-08-01T05:20:13;98741.97;;;26.85;66.40
14120;BME280;7138;49.246;9.100;2022-08-01T05:22:39;98737.41;;;27.39;65.14
14120;BME280;7138;49.246;9.100;2022-08-01T05:25:06;98742.88;;;28.13;63.57
14120;BME280;7138;49.246;9.100;2022-08-01T05:27:32;98743.38;;;28.91;62.11
14120;BME280;7138;49.246;9.100;2022-08-01T05:30:05;98749.06;;;29.67;61.27
14120;BME280;7138;49.246;9.100;2022-08-01T05:32:31;98761.03;;;30.41;59.17
14120;BME280;7138;49.246;9.100;2022-08-01T05:34:57;98752.94;;;31.17;57.36
14120;BME280;7138;49.246;9.100;2022-08-01T05:37:24;98757.38;;;31.90;56.86
14120;BME280;7138;49.246;9.100;2022-08-01T05:39:51;98751.19;;;32.20;55.79
14120;BME280;7138;49.246;9.100;2022-08-01T05:42:16;98761.09;;;32.69;54.77
14120;BME280;7138;49.246;9.100;2022-08-01T05:44:42;98754.41;;;33.22;54.07
14120;BME280;7138;49.246;9.100;2022-08-01T05:47:08;98751.81;;;33.69;53.30
14120;BME280;7138;49.246;9.100;2022-08-01T05:49:34;98760.88;;;34.14;52.75
14120;BME280;7138;49.246;9.100;2022-08-01T05:52:00;98763.59;;;34.69;52.22
14120;BME280;7138;49.246;9.100;2022-08-01T05:54:28;98757.38;;;35.13;51.42
14120;BME280;7138;49.246;9.100;2022-08-01T05:56:54;98763.41;;;35.50;51.01
14120;BME280;7138;49.246;9.100;2022-08-01T05:59:24;98768.16;;;35.74;50.15
14120;BME280;7138;49.246;9.100;2022-08-01T06:01:50;98767.91;;;36.11;50.25
14120;BME280;7138;49.246;9.100;2022-08-01T06:04:16;98768.22;;;36.42;49.03
14120;BME280;7138;49.246;9.100;2022-08-01T06:06:42;98767.00;;;36.70;48.13
14120;BME280;7138;49.246;9.100;2022-08-01T06:09:08;98764.81;;;36.65;48.44
14120;BME280;7138;49.246;9.100;2022-08-01T06:11:35;98768.69;;;36.29;49.04
14120;BME280;7138;49.246;9.100;2022-08-01T06:14:01;98770.09;;;36.15;48.84
14120;BME280;7138;49.246;9.100;2022-08-01T06:16:27;98765.59;;;36.24;48.82
14120;BME280;7138;49.246;9.100;2022-08-01T06:18:52;98762.47;;;36.37;48.65
14120;BME280;7138;49.246;9.100;2022-08-01T06:21:18;98762.97;;;36.32;48.57
14120;BME280;7138;49.246;9.100;2022-08-01T06:23:44;98776.47;;;36.40;48.55
14120;BME280;7138;49.246;9.100;2022-08-01T06:26:10;98765.97;;;36.63;48.99
14120;BME280;7138;49.246;9.100;2022-08-01T06:28:38;98774.34;;;37.02;48.23
14120;BME280;7138;49.246;9.100;2022-08-01T06:31:05;98780.78;;;37.33;47.78
14120;BME280;7138;49.246;9.100;2022-08-01T06:33:30;98782.50;;;37.50;47.83
14120;BME280;7138;49.246;9.100;2022-08-01T06:35:56;98776.44;;;37.72;48.06
14120;BME280;7138;49.246;9.100;2022-08-01T06:38:22;98766.97;;;37.85;47.30
14120;BME280;7138;49.246;9.100;2022-08-01T06:40:50;98776.22;;;37.82;47.36
14120;BME280;7138;49.246;9.100;2022-08-01T06:43:15;98773.06;;;37.62;47.46
14120;BME280;7138;49.246;9.100;2022-08-01T06:45:43;98769.97;;;37.33;47.79
14120;BME280;7138;49.246;9.100;2022-08-01T06:48:09;98773.50;;;37.01;48.49
14120;BME280;7138;49.246;9.100;2022-08-01T06:50:35;98776.13;;;36.43;48.38
14120;BME280;7138;49.246;9.100;2022-08-01T06:53:02;98775.03;;;36.02;49.42
14120;BME280;7138;49.246;9.100;2022-08-01T06:55:28;98777.28;;;35.38;50.11
14120;BME280;7138;49.246;9.100;2022-08-01T06:57:54;98783.81;;;34.73;51.09
14120;BME280;7138;49.246;9.100;2022-08-01T07:00:21;98786.13;;;34.31;51.89
14120;BME280;7138;49.246;9.100;2022-08-01T07:02:49;98783.03;;;33.70;52.02
14120;BME280;7138;49.246;9.100;2022-08-01T07:05:15;98785.88;;;33.30;53.01
14120;BME280;7138;49.246;9.100;2022-08-01T07:07:41;98774.69;;;32.96;53.53
14120;BME280;7138;49.246;9.100;2022-08-01T07:10:08;98774.06;;;32.64;53.75
14120;BME280;7138;49.246;9.100;2022-08-01T07:12:34;98776.63;;;32.35;54.63
14120;BME280;7138;49.246;9.100;2022-08-01T07:15:02;98789.16;;;32.04;55.03
14120;BME280;7138;49.246;9.100;2022-08-01T07:17:28;98778.19;;;31.45;56.34
14120;BME280;7138;49.246;9.100;2022-08-01T07:19:55;98786.03;;;31.05;56.82
14120;BME280;7138;49.246;9.100;2022-08-01T07:22:21;98783.28;;;30.84;57.84
14120;BME280;7138;49.246;9.100;2022-08-01T07:24:47;98773.34;;;30.64;57.98
14120;BME280;7138;49.246;9.100;2022-08-01T07:27:13;98772.28;;;30.56;58.44
14120;BME280;7138;49.246;9.100;2022-08-01T07:29:39;98781.03;;;30.58;58.79
14120;BME280;7138;49.246;9.100;2022-08-01T07:32:05;98768.53;;;30.47;58.19
14120;BME280;7138;49.246;9.100;2022-08-01T07:34:31;98776.69;;;30.46;57.76
14120;BME280;7138;49.246;9.100;2022-08-01T07:36:58;98777.91;;;30.30;58.58
14120;BME280;7138;49.246;9.100;2022-08-01T07:39:24;98773.28;;;29.99;59.65
14120;BME280;7138;49.246;9.100;2022-08-01T07:41:50;98773.13;;;29.78;59.45
14120;BME280;7138;49.246;9.100;2022-08-01T07:44:16;98771.00;;;29.60;60.50
14120;BME280;7138;49.246;9.100;2022-08-01T07:46:42;98770.47;;;29.44;60.52
14120;BME280;7138;49.246;9.100;2022-08-01T07:49:07;98768.03;;;29.30;60.59
14120;BME280;7138;49.246;9.100;2022-08-01T07:51:33;98764.50;;;29.29;61.35
14120;BME280;7138;49.246;9.100;2022-08-01T07:54:00;98762.34;;;29.34;61.05
14120;BME280;7138;49.246;9.100;2022-08-01T07:56:26;98761.47;;;29.34;61.38
14120;BME280;7138;49.246;9.100;2022-08-01T07:58:52;98768.03;;;29.30;60.84
14120;BME280;7138;49.246;9.100;2022-08-01T08:01:18;98761.00;;;29.28;61.12
14120;BME280;7138;49.246;9.100;2022-08-01T08:03:46;98762.34;;;29.34;61.55
14120;BME280;7138;49.246;9.100;2022-08-01T08:06:12;98760.53;;;29.35;61.63
14120;BME280;7138;49.246;9.100;2022-08-01T08:08:38;98756.91;;;29.36;61.62
14120;BME280;7138;49.246;9.100;2022-08-01T08:11:05;98763.81;;;29.49;61.37
14120;BME280;7138;49.246;9.100;2022-08-01T08:13:31;98755.25;;;29.68;61.46
14120;BME280;7138;49.246;9.100;2022-08-01T08:15:57;98756.28;;;29.89;60.95
14120;BME280;7138;49.246;9.100;2022-08-01T08:18:25;98765.03;;;30.02;60.03
14120;BME280;7138;49.246;9.100;2022-08-01T08:20:51;98755.06;;;30.04;59.21
14120;BME280;7138;49.246;9.100;2022-08-01T08:23:17;98754.13;;;30.05;60.01
14120;BME280;7138;49.246;9.100;2022-08-01T08:26:01;98751.34;;;30.18;59.20
14120;BME280;7138;49.246;9.100;2022-08-01T08:28:29;98755.81;;;30.17;59.23
14120;BME280;7138;49.246;9.100;2022-08-01T08:30:54;98753.63;;;30.11;59.91
14120;BME280;7138;49.246;9.100;2022-08-01T08:33:20;98741.34;;;30.31;59.36
14120;BME280;7138;49.246;9.100;2022-08-01T08:35:46;98747.03;;;30.60;59.72
14120;BME280;7138;49.246;9.100;2022-08-01T08:38:12;98756.63;;;30.62;58.56
14120;BME280;7138;49.246;9.100;2022-08-01T08:40:38;98759.53;;;30.59;58.41
14120;BME280;7138;49.246;9.100;2022-08-01T08:43:05;98751.78;;;30.56;59.40
14120;BME280;7138;49.246;9.100;2022-08-01T08:45:32;98760.25;;;30.61;58.69
14120;BME280;7138;49.246;9.100;2022-08-01T08:47:59;98749.69;;;30.71;59.65
14120;BME280;7138;49.246;9.100;2022-08-01T08:50:26;98751.97;;;30.75;58.87
14120;BME280;7138;49.246;9.100;2022-08-01T08:52:54;98743.81;;;30.77;58.45
14120;BME280;7138;49.246;9.100;2022-08-01T08:55:21;98738.59;;;30.86;58.29
14120;BME280;7138;49.246;9.100;2022-08-01T08:57:49;98747.44;;;30.98;58.86
14120;BME280;7138;49.246;9.100;2022-08-01T09:00:16;98744.63;;;30.88;57.55
14120;BME280;7138;49.246;9.100;2022-08-01T09:02:45;98748.22;;;30.78;58.21
14120;BME280;7138;49.246;9.100;2022-08-01T09:05:13;98750.84;;;30.89;58.73
14120;BME280;7138;49.246;9.100;2022-08-01T09:07:39;98746.88;;;31.15;58.50
14120;BME280;7138;49.246;9.100;2022-08-01T09:10:07;98756.66;;;31.47;57.86
14120;BME280;7138;49.246;9.100;2022-08-01T09:12:36;98754.03;;;31.67;58.77
14120;BME280;7138;49.246;9.100;2022-08-01T09:15:02;98741.47;;;31.88;57.23
14120;BME280;7138;49.246;9.100;2022-08-01T09:17:39;98750.25;;;32.00;56.90
14120;BME280;7138;49.246;9.100;2022-08-01T09:20:08;98747.91;;;31.86;56.22
14120;BME280;7138;49.246;9.100;2022-08-01T09:22:47;98753.38;;;31.54;57.04
14120;BME280;7138;49.246;9.100;2022-08-01T09:25:13;98757.50;;;31.58;56.81
14120;BME280;7138;49.246;9.100;2022-08-01T09:27:39;98748.94;;;31.64;56.23
14120;BME280;7138;49.246;9.100;2022-08-01T09:30:11;98745.16;;;31.67;56.74
14120;BME280;7138;49.246;9.100;2022-08-01T09:32:54;98754.25;;;31.43;57.03
14120;BME280;7138;49.246;9.100;2022-08-01T09:35:27;98762.00;;;31.26;56.88
14120;BME280;7138;49.246;9.100;2022-08-01T09:38:13;98761.94;;;31.16;57.64
14120;BME280;7138;49.246;9.100;2022-08-01T09:40:49;98758.53;;;31.14;56.76
14120;BME280;7138;49.246;9.100;2022-08-01T09:43:16;98757.16;;;30.99;56.64
14120;BME280;7138;49.246;9.100;2022-08-01T09:45:43;98757.84;;;30.69;57.23
14120;BME280;7138;49.246;9.100;2022-08-01T09:48:09;98759.91;;;30.66;57.08
14120;BME280;7138;49.246;9.100;2022-08-01T09:50:41;98751.28;;;30.62;56.76
14120;BME280;7138;49.246;9.100;2022-08-01T09:53:07;98756.31;;;30.45;59.07
14120;BME280;7138;49.246;9.100;2022-08-01T09:55:33;98751.06;;;30.54;59.01
14120;BME280;7138;49.246;9.100;2022-08-01T09:57:59;98764.28;;;30.56;57.81
14120;BME280;7138;49.246;9.100;2022-08-01T10:00:27;98735.50;;;30.59;57.53
14120;BME280;7138;49.246;9.100;2022-08-01T10:02:53;98762.38;;;30.89;57.30
14120;BME280;7138;49.246;9.100;2022-08-01T10:05:30;98749.38;;;30.96;57.81
14120;BME280;7138;49.246;9.100;2022-08-01T10:08:00;98755.50;;;30.76;56.57
14120;BME280;7138;49.246;9.100;2022-08-01T10:10:27;98753.00;;;31.06;57.08
14120;BME280;7138;49.246;9.100;2022-08-01T10:12:56;98755.88;;;31.35;55.71
14120;BME280;7138;49.246;9.100;2022-08-01T10:15:24;98746.13;;;31.66;56.10
14120;BME280;7138;49.246;9.100;2022-08-01T10:17:54;98740.69;;;31.77;56.16
14120;BME280;7138;49.246;9.100;2022-08-01T10:20:25;98750.22;;;31.90;55.75
14120;BME280;7138;49.246;9.100;2022-08-01T10:22:54;98742.03;;;31.92;55.27
14120;BME280;7138;49.246;9.100;2022-08-01T10:25:23;98741.34;;;31.90;55.49
14120;BME280;7138;49.246;9.100;2022-08-01T10:27:53;98734.28;;;32.10;56.08
14120;BME280;7138;49.246;9.100;2022-08-01T10:30:23;98727.53;;;32.15;54.28
14120;BME280;7138;49.246;9.100;2022-08-01T10:32:49;98736.97;;;32.19;54.15
14120;BME280;7138;49.246;9.100;2022-08-01T10:35:18;98731.97;;;32.35;55.73
14120;BME280;7138;49.246;9.100;2022-08-01T10:37:46;98731.25;;;32.33;54.05
14120;BME280;7138;49.246;9.100;2022-08-01T10:40:13;98733.03;;;32.23;55.20
14120;BME280;7138;49.246;9.100;2022-08-01T10:42:43;98739.09;;;32.25;54.80
14120;BME280;7138;49.246;9.100;2022-08-01T10:45:13;98737.28;;;32.26;54.65
14120;BME280;7138;49.246;9.100;2022-08-01T10:47:47;98734.00;;;32.22;54.44
14120;BME280;7138;49.246;9.100;2022-08-01T10:50:21;98732.97;;;32.04;54.25
14120;BME280;7138;49.246;9.100;2022-08-01T10:53:18;98736.94;;;31.89;54.61
14120;BME280;7138;49.246;9.100;2022-08-01T10:55:51;98738.75;;;31.79;54.59
14120;BME280;7138;49.246;9.100;2022-08-01T10:58:27;98739.53;;;31.70;54.91
14120;BME280;7138;49.246;9.100;2022-08-01T11:01:18;98742.09;;;31.51;54.94
14120;BME280;7138;49.246;9.100;2022-08-01T11:03:56;98730.44;;;31.52;55.78
14120;BME280;7138;49.246;9.100;2022-08-01T11:06:25;98729.94;;;31.47;55.86
14120;BME280;7138;49.246;9.100;2022-08-01T11:08:54;98734.84;;;31.41;55.17
14120;BME280;7138;49.246;9.100;2022-08-01T11:11:21;98729.81;;;31.48;56.24
14120;BME280;7138;49.246;9.100;2022-08-01T11:14:05;98727.50;;;31.55;55.63
14120;BME280;7138;49.246;9.100;2022-08-01T11:16:40;98729.22;;;31.65;55.87
14120;BME280;7138;49.246;9.100;2022-08-01T11:19:08;98724.91;;;31.74;56.20
14120;BME280;7138;49.246;9.100;2022-08-01T11:21:59;98722.97;;;31.76;54.70
14120;BME280;7138;49.246;9.100;2022-08-01T11:24:55;98722.47;;;31.61;56.49
14120;BME280;7138;49.246;9.100;2022-08-01T11:27:25;98721.09;;;31.67;55.37
14120;BME280;7138;49.246;9.100;2022-08-01T11:30:24;98722.31;;;31.63;55.38
14120;BME280;7138;49.246;9.100;2022-08-01T11:32:53;98717.06;;;31.52;55.48
14120;BME280;7138;49.246;9.100;2022-08-01T11:35:21;98722.31;;;31.63;56.64
14120;BME280;7138;49.246;9.100;2022-08-01T11:37:49;98717.25;;;31.60;56.21
14120;BME280;7138;49.246;9.100;2022-08-01T11:40:23;98712.59;;;31.62;55.90
14120;BME280;7138;49.246;9.100;2022-08-01T11:43:18;98716.31;;;31.70;56.13
14120;BME280;7138;49.246;9.100;2022-08-01T11:45:48;98722.69;;;31.79;57.50
14120;BME280;7138;49.246;9.100;2022-08-01T11:48:19;98713.38;;;31.73;56.23
14120;BME280;7138;49.246;9.100;2022-08-01T11:50:45;98715.75;;;31.67;55.59
14120;BME280;7138;49.246;9.100;2022-08-01T11:53:11;98717.66;;;31.55;55.02
14120;BME280;7138;49.246;9.100;2022-08-01T11:55:46;98718.25;;;31.48;56.58
14120;BME280;7138;49.246;9.100;2022-08-01T11:58:12;98708.88;;;31.32;55.56
14120;BME280;7138;49.246;9.100;2022-08-01T12:00:40;98716.63;;;31.35;55.83
14120;BME280;7138;49.246;9.100;2022-08-01T12:03:08;98720.28;;;31.34;55.28
14120;BME280;7138;49.246;9.100;2022-08-01T12:05:36;98706.13;;;31.43;56.58
14120;BME280;7138;49.246;9.100;2022-08-01T12:08:03;98697.13;;;31.45;56.20
14120;BME280;7138;49.246;9.100;2022-08-01T12:10:34;98703.84;;;31.39;55.96
14120;BME280;7138;49.246;9.100;2022-08-01T12:13:06;98698.84;;;31.46;55.39
14120;BME280;7138;49.246;9.100;2022-08-01T12:15:37;98699.88;;;31.33;56.29
14120;BME280;7138;49.246;9.100;2022-08-01T12:18:06;98692.63;;;31.45;56.40
14120;BME280;7138;49.246;9.100;2022-08-01T12:20:35;98697.22;;;31.54;55.75
14120;BME280;7138;49.246;9.100;2022-08-01T12:23:04;98694.03;;;31.60;55.95
14120;BME280;7138;49.246;9.100;2022-08-01T12:25:32;98684.75;;;31.64;56.75
14120;BME280;7138;49.246;9.100;2022-08-01T12:28:01;98684.94;;;31.72;55.77
14120;BME280;7138;49.246;9.100;2022-08-01T12:30:28;98682.84;;;31.76;55.53
14120;BME280;7138;49.246;9.100;2022-08-01T12:32:57;98680.22;;;31.85;55.29
14120;BME280;7138;49.246;9.100;2022-08-01T12:35:27;98683.28;;;31.81;54.96
14120;BME280;7138;49.246;9.100;2022-08-01T12:37:57;98672.69;;;31.70;55.05
14120;BME280;7138;49.246;9.100;2022-08-01T12:40:27;98666.31;;;31.71;55.45
14120;BME280;7138;49.246;9.100;2022-08-01T12:42:56;98674.59;;;31.88;55.42
14120;BME280;7138;49.246;9.100;2022-08-01T12:45:26;98671.88;;;32.09;56.05
14120;BME280;7138;49.246;9.100;2022-08-01T12:47:54;98658.41;;;32.39;56.66
14120;BME280;7138;49.246;9.100;2022-08-01T12:50:27;98671.28;;;32.74;54.65
14120;BME280;7138;49.246;9.100;2022-08-01T12:52:54;98670.88;;;32.98;52.97
14120;BME280;7138;49.246;9.100;2022-08-01T12:55:21;98667.34;;;33.07;52.62
14120;BME280;7138;49.246;9.100;2022-08-01T12:58:02;98672.00;;;33.15;53.14
14120;BME280;7138;49.246;9.100;2022-08-01T13:00:29;98668.56;;;33.41;52.76
14120;BME280;7138;49.246;9.100;2022-08-01T13:03:02;98663.72;;;33.64;51.96
14120;BME280;7138;49.246;9.100;2022-08-01T13:05:42;98664.88;;;33.62;51.88
14120;BME280;7138;49.246;9.100;2022-08-01T13:08:11;98654.94;;;33.72;52.17
14120;BME280;7138;49.246;9.100;2022-08-01T13:10:37;98657.91;;;33.69;51.87
14120;BME280;7138;49.246;9.100;2022-08-01T13:13:04;98646.88;;;33.72;51.21
14120;BME280;7138;49.246;9.100;2022-08-01T13:15:33;98660.72;;;33.77;51.46
14120;BME280;7138;49.246;9.100;2022-08-01T13:18:21;98656.63;;;33.73;51.50
14120;BME280;7138;49.246;9.100;2022-08-01T13:20:48;98651.59;;;33.60;51.29